Time;durP1;ratioP1;P1;durP2;ratioP2;P2;SDS_P1;SDS_P2;PMS_P1;PMS_P2;Temp;Humidity;BMP_temperature;BMP_pressure;BME280_temperature;BME280_humidity;BME280_pressure;Samples;Min_cycle;Max_cycle;Signal;HPM_P1;HPM_P2
2023/04/12 00:01:30;;;;;;;1.92;1.05;;;;;;;;;;6287085;22;20066;-81
2023/04/12 00:03:56;;;;;;;1.17;0.88;;;;;;;;;;6287231;22;20085;-81
2023/04/12 00:06:26;;;;;;;2.88;0.65;;;;;;;;;;6287236;22;20371;-82
2023/04/12 00:08:52;;;;;;;1.83;0.77;;;18.60;61.80;;;;;;6287340;22;20037;-81
2023/04/12 00:11:18;;;;;;;2.15;0.88;;;;;;;;;;6287488;22;19996;-81
2023/04/12 00:13:44;;;;;;;4.55;0.80;;;;;;;;;;6287082;22;20002;-81
2023/04/12 00:16:14;;;;;;;1.65;0.80;;;;;;;;;;6287217;22;20327;-81
2023/04/12 00:18:41;;;;;;;1.58;0.60;;;;;;;;;;6287401;22;20031;-80
2023/04/12 00:21:07;;;;;;;2.58;0.80;;;18.50;84.00;;;;;;6287652;22;20432;-81
2023/04/12 00:23:33;;;;;;;3.97;1.05;;;18.50;83.80;;;;;;6287799;22;20000;-82
2023/04/12 00:25:58;;;;;;;1.90;0.70;;;18.60;83.80;;;;;;6287322;22;20000;-82
2023/04/12 00:28:25;;;;;;;1.58;0.80;;;18.60;83.80;;;;;;6287313;22;20023;-82
2023/04/12 00:30:50;;;;;;;2.00;0.80;;;18.30;82.20;;;;;;6287525;22;20004;-82
2023/04/12 00:33:16;;;;;;;1.70;0.57;;;18.50;79.20;;;;;;6287231;22;20419;-82
2023/04/12 00:35:42;;;;;;;2.20;0.50;;;18.30;71.10;;;;;;6277244;22;20075;-82
2023/04/12 00:38:09;;;;;;;1.55;0.60;;;18.30;71.80;;;;;;6277137;22;20003;-82
2023/04/12 00:40:40;;;;;;;1.50;0.75;;;18.50;52.80;;;;;;6276867;22;20011;-82
2023/04/12 00:43:06;;;;;;;2.22;0.80;;;;;;;;;;6286932;22;20062;-82
2023/04/12 00:45:31;;;;;;;1.65;0.68;;;;;;;;;;6286851;22;20019;-83
2023/04/12 00:47:58;;;;;;;2.70;0.70;;;;;;;;;;6276992;22;20000;-82
2023/04/12 00:50:24;;;;;;;1.02;0.63;;;18.30;84.30;;;;;;6276902;22;19999;-82
2023/04/12 00:52:51;;;;;;;2.13;0.70;;;18.30;84.40;;;;;;6276623;22;19996;-82
2023/04/12 00:55:17;;;;;;;1.85;0.73;;;18.30;84.40;;;;;;6286863;22;19996;-82
2023/04/12 00:57:42;;;;;;;1.33;0.68;;;18.50;84.40;;;;;;6274742;22;20395;-82
2023/04/12 01:00:12;;;;;;;0.70;0.32;;;18.40;84.30;;;;;;6286782;22;19995;-82
2023/04/12 01:02:45;;;;;;;2.25;0.60;;;18.50;84.60;;;;;;6276240;22;20297;-82
2023/04/12 01:05:13;;;;;;;2.30;0.75;;;18.20;65.50;;;;;;6276731;22;20003;-82
2023/04/12 01:07:50;;;;;;;1.85;0.52;;;18.30;53.10;;;;;;6276674;22;20000;-82
2023/04/12 01:10:19;;;;;;;0.50;0.40;;;18.50;84.40;;;;;;6276362;22;19992;-82
2023/04/12 01:13:01;;;;;;;1.75;0.60;;;18.40;75.00;;;;;;6276085;22;20010;-82
2023/04/12 01:15:31;;;;;;;0.95;0.40;;;18.20;61.90;;;;;;6276100;22;20019;-82
2023/04/12 01:18:10;;;;;;;1.08;0.43;;;18.10;84.70;;;;;;6276547;22;20008;-82
2023/04/12 01:20:43;;;;;;;1.75;0.50;;;18.40;84.90;;;;;;6276568;22;20410;-82
2023/04/12 01:23:47;;;;;;;0.85;0.40;;;18.30;49.40;;;;;;6276411;22;20454;-72
2023/04/12 01:26:37;;;;;;;0.93;0.40;;;18.20;85.10;;;;;;6276222;22;20003;-72
2023/04/12 01:29:15;;;;;;;1.08;0.45;;;18.20;49.20;;;;;;6275852;22;20000;-72
2023/04/12 01:31:56;;;;;;;1.17;0.47;;;18.00;60.10;;;;;;6276227;22;19996;-72
2023/04/12 01:34:26;;;;;;;1.05;0.40;;;18.10;84.80;;;;;;6275884;22;20002;-72
2023/04/12 01:36:52;;;;;;;1.48;0.70;;;17.90;76.70;;;;;;6276089;22;20011;-72
2023/04/12 01:39:19;;;;;;;0.82;0.50;;;18.30;85.10;;;;;;6276142;22;20046;-72
2023/04/12 01:41:47;;;;;;;2.67;0.75;;;;;;;;;;6276170;22;19996;-72
2023/04/12 01:44:15;;;;;;;1.73;0.38;;;18.10;54.10;;;;;;6275806;22;19999;-72
2023/04/12 01:46:43;;;;;;;0.88;0.35;;;18.20;53.50;;;;;;6276074;22;20000;-72
2023/04/12 01:49:11;;;;;;;3.13;0.60;;;18.10;53.00;;;;;;6275698;22;19999;-72
2023/04/12 01:52:00;;;;;;;1.10;0.40;;;18.20;84.70;;;;;;6286073;22;20445;-72
2023/04/12 01:54:29;;;;;;;0.50;0.30;;;18.10;53.40;;;;;;6260517;22;19996;-72
2023/04/12 01:56:58;;;;;;;1.00;0.40;;;17.90;84.80;;;;;;6285885;22;20011;-72
2023/04/12 01:59:46;;;;;;;1.02;0.22;;;17.60;69.30;;;;;;6285859;22;20007;-72
2023/04/12 02:02:12;;;;;;;0.93;0.40;;;18.10;52.60;;;;;;6285825;22;20328;-72
2023/04/12 02:04:39;;;;;;;1.63;0.47;;;18.00;82.70;;;;;;6275456;22;19999;-72
2023/04/12 02:07:06;;;;;;;0.80;0.25;;;18.10;64.10;;;;;;6275856;22;19996;-72
2023/04/12 02:09:38;;;;;;;1.98;0.80;;;18.10;63.40;;;;;;6275782;22;20038;-72
2023/04/12 02:12:06;;;;;;;1.55;0.52;;;18.00;84.80;;;;;;6275569;22;20016;-72
2023/04/12 02:14:32;;;;;;;0.90;0.40;;;18.10;80.00;;;;;;6275765;22;20351;-72
2023/04/12 02:17:01;;;;;;;1.08;0.32;;;;;;;;;;6275260;22;20474;-72
2023/04/12 02:19:26;;;;;;;0.70;0.40;;;18.00;84.90;;;;;;6275845;22;20046;-72
2023/04/12 02:21:52;;;;;;;0.60;0.35;;;18.20;85.00;;;;;;6275468;22;20006;-72
2023/04/12 02:24:19;;;;;;;0.90;0.40;;;18.20;85.00;;;;;;6275677;22;19999;-72
2023/04/12 02:26:45;;;;;;;1.30;0.47;;;18.10;80.80;;;;;;6275797;22;20460;-72
2023/04/12 02:29:11;;;;;;;0.90;0.50;;;18.10;84.90;;;;;;6275789;22;20436;-72
2023/04/12 02:31:37;;;;;;;0.88;0.43;;;18.10;85.10;;;;;;6275709;22;20004;-72
2023/04/12 02:34:04;;;;;;;1.02;0.38;;;18.20;61.00;;;;;;6275606;22;20049;-72
2023/04/12 02:36:30;;;;;;;1.17;0.40;;;18.10;85.00;;;;;;6248566;22;20473;-72
2023/04/12 02:38:57;;;;;;;0.88;0.47;;;17.80;84.80;;;;;;6274322;22;20380;-72
2023/04/12 02:41:23;;;;;;;1.33;0.50;;;17.90;84.70;;;;;;6274155;22;20016;-72
2023/04/12 02:43:50;;;;;;;1.65;0.60;;;18.20;62.60;;;;;;6275357;22;20452;-72
2023/04/12 02:46:23;;;;;;;2.17;0.85;;;18.10;84.60;;;;;;6275621;22;19999;-72
2023/04/12 02:48:49;;;;;;;0.80;0.40;;;17.90;84.80;;;;;;6275636;22;19996;-72
2023/04/12 02:51:15;;;;;;;1.02;0.30;;;;;;;;;;6275590;22;19995;-72
2023/04/12 02:53:42;;;;;;;1.10;0.40;;;17.90;58.20;;;;;;6275472;22;19996;-72
2023/04/12 02:56:08;;;;;;;0.93;0.40;;;17.60;73.50;;;;;;6275598;22;20035;-72
2023/04/12 02:58:35;;;;;;;0.80;0.30;;;18.10;85.50;;;;;;6273729;22;20510;-72
2023/04/12 03:01:01;;;;;;;0.52;0.30;;;17.60;85.20;;;;;;6275116;22;20012;-72
2023/04/12 03:03:30;;;;;;;0.63;0.30;;;;;;;;;;6274932;22;20007;-72
2023/04/12 03:05:57;;;;;;;1.00;0.50;;;;;;;;;;6275511;22;20003;-72
2023/04/12 03:08:23;;;;;;;1.73;0.45;;;17.80;85.10;;;;;;6275535;22;20049;-72
2023/04/12 03:10:49;;;;;;;1.08;0.40;;;17.70;83.70;;;;;;6285532;22;19996;-72
2023/04/12 03:13:15;;;;;;;2.03;0.30;;;17.80;83.50;;;;;;6275630;22;19996;-72
2023/04/12 03:15:42;;;;;;;0.85;0.38;;;18.00;83.90;;;;;;6275865;22;20016;-72
2023/04/12 03:18:09;;;;;;;1.27;0.70;;;;;;;;;;6277541;22;20000;-72
2023/04/12 03:20:35;;;;;;;0.65;0.20;;;18.00;85.00;;;;;;6277474;22;19995;-72
2023/04/12 03:23:02;;;;;;;0.90;0.40;;;;;;;;;;6277463;22;20000;-72
2023/04/12 03:25:29;;;;;;;0.35;0.20;;;18.00;85.20;;;;;;6277112;22;20457;-72
2023/04/12 03:27:55;;;;;;;1.30;0.38;;;17.70;85.30;;;;;;6277398;22;20058;-72
2023/04/12 03:30:21;;;;;;;1.52;0.30;;;;;;;;;;6277057;22;20379;-72
2023/04/12 03:32:47;;;;;;;0.98;0.43;;;;;;;;;;6277431;22;19996;-72
2023/04/12 03:35:14;;;;;;;0.75;0.30;;;;;;;;;;6277305;22;20004;-72
2023/04/12 03:37:41;;;;;;;0.55;0.30;;;18.00;58.30;;;;;;6277330;22;20018;-72
2023/04/12 03:40:08;;;;;;;0.50;0.32;;;17.50;51.80;;;;;;6277567;22;20003;-72
2023/04/12 03:42:35;;;;;;;2.35;0.38;;;17.70;85.80;;;;;;6277283;22;20062;-72
2023/04/12 03:45:02;;;;;;;0.50;0.17;;;;;;;;;;6277237;22;20063;-72
2023/04/12 03:47:28;;;;;;;1.88;0.43;;;17.70;68.90;;;;;;6277238;22;20003;-72
2023/04/12 03:49:54;;;;;;;0.80;0.20;;;17.90;82.10;;;;;;6277135;22;19996;-72
2023/04/12 03:52:20;;;;;;;1.10;0.20;;;17.90;85.90;;;;;;6277324;22;20068;-72
2023/04/12 03:54:46;;;;;;;0.70;0.43;;;17.60;86.10;;;;;;6287136;22;20446;-72
2023/04/12 03:57:12;;;;;;;1.45;0.30;;;;;;;;;;6287370;22;20082;-72
2023/04/12 03:59:38;;;;;;;1.45;0.30;;;17.60;85.40;;;;;;6276687;22;20007;-72
2023/04/12 04:02:04;;;;;;;0.52;0.47;;;17.90;86.00;;;;;;6276747;22;20000;-72
2023/04/12 04:04:31;;;;;;;1.23;0.30;;;;;;;;;;6276789;22;19992;-72
2023/04/12 04:06:57;;;;;;;0.80;0.20;;;17.50;86.10;;;;;;6276636;22;20000;-72
2023/04/12 04:09:23;;;;;;;0.93;0.22;;;17.90;86.00;;;;;;6277080;22;20027;-72
2023/04/12 04:11:50;;;;;;;0.52;0.20;;;17.80;86.00;;;;;;6277010;22;19995;-72
2023/04/12 04:14:16;;;;;;;0.50;0.22;;;17.90;86.10;;;;;;6276893;22;19995;-72
2023/04/12 04:16:42;;;;;;;1.98;0.30;;;17.80;85.70;;;;;;6276786;22;20445;-72
2023/04/12 04:19:08;;;;;;;0.68;0.30;;;17.90;85.60;;;;;;6276585;22;19995;-72
2023/04/12 04:21:34;;;;;;;0.20;0.20;;;;;;;;;;6286788;22;20015;-72
2023/04/12 04:24:01;;;;;;;0.35;0.15;;;17.50;55.30;;;;;;6276774;22;20353;-72
2023/04/12 04:26:33;;;;;;;0.63;0.20;;;17.70;85.80;;;;;;6286931;22;20000;-72
2023/04/12 04:29:02;;;;;;;1.15;0.50;;;17.60;59.40;;;;;;6286609;22;20045;-72
2023/04/12 04:31:33;;;;;;;0.47;0.40;;;17.90;86.30;;;;;;6276884;22;20007;-72
2023/04/12 04:34:02;;;;;;;0.43;0.20;;;17.70;86.00;;;;;;6276859;22;20003;-72
2023/04/12 04:36:28;;;;;;;0.60;0.30;;;17.80;53.00;;;;;;6276461;22;20014;-72
2023/04/12 04:38:56;;;;;;;0.35;0.10;;;17.80;86.00;;;;;;6276826;22;19995;-72
2023/04/12 04:41:23;;;;;;;0.68;0.30;;;17.50;76.10;;;;;;6276702;22;20075;-72
2023/04/12 04:43:49;;;;;;;1.10;0.20;;;17.60;86.10;;;;;;6286739;22;19992;-72
2023/04/12 04:46:16;;;;;;;0.43;0.30;;;17.90;86.20;;;;;;6286649;22;19996;-72
2023/04/12 04:48:42;;;;;;;0.35;0.22;;;;;;;;;;6276512;22;19996;-72
2023/04/12 04:51:08;;;;;;;0.52;0.20;;;;;;;;;;6286509;22;19996;-72
2023/04/12 04:53:35;;;;;;;0.77;0.20;;;;;;;;;;6276564;22;20004;-72
2023/04/12 04:56:01;;;;;;;0.40;0.30;;;17.70;85.80;;;;;;6286426;22;20000;-72
2023/04/12 04:58:26;;;;;;;0.10;0.10;;;17.70;85.90;;;;;;6284968;22;20031;-72
2023/04/12 05:00:56;;;;;;;0.30;0.25;;;;;;;;;;6286537;22;19991;-72
2023/04/12 05:03:22;;;;;;;0.10;0.10;;;;;;;;;;6286259;22;20553;-72
2023/04/12 05:05:50;;;;;;;0.77;0.20;;;17.80;50.70;;;;;;6286563;22;19996;-82
2023/04/12 05:08:16;;;;;;;0.65;0.30;;;17.80;86.00;;;;;;6286501;22;20073;-82
2023/04/12 05:10:43;;;;;;;1.55;0.95;;;17.80;59.80;;;;;;6286456;22;20011;-82
2023/04/12 05:13:09;;;;;;;0.57;0.22;;;17.60;86.10;;;;;;6286467;22;20007;-82
2023/04/12 05:15:34;;;;;;;0.55;0.20;;;17.70;86.20;;;;;;6286487;22;19995;-82
2023/04/12 05:18:00;;;;;;;0.40;0.20;;;17.80;86.30;;;;;;6286406;22;20420;-83
2023/04/12 05:20:26;;;;;;;0.55;0.20;;;17.80;86.10;;;;;;6286398;22;19996;-82
2023/04/12 05:22:52;;;;;;;0.30;0.20;;;17.60;73.40;;;;;;6287107;22;20062;-87
2023/04/12 05:25:19;;;;;;;0.52;0.30;;;;;;;;;;6292736;22;20027;-80
2023/04/12 05:27:45;;;;;;;0.38;0.20;;;;;;;;;;6276039;22;19999;-81
2023/04/12 05:30:11;;;;;;;0.35;0.25;;;17.60;86.00;;;;;;6286435;22;20049;-82
2023/04/12 05:32:36;;;;;;;1.77;0.60;;;17.80;86.50;;;;;;6286409;22;20431;-83
2023/04/12 05:35:02;;;;;;;0.30;0.30;;;17.60;86.20;;;;;;6286313;22;20442;-83
2023/04/12 05:37:28;;;;;;;0.57;0.20;;;18.00;74.30;;;;;;6286050;22;20008;-83
2023/04/12 05:39:54;;;;;;;0.40;0.20;;;;;;;;;;6286310;22;20423;-81
2023/04/12 05:42:20;;;;;;;0.55;0.30;;;17.90;70.30;;;;;;6277527;22;20010;-81
2023/04/12 05:44:47;;;;;;;0.75;0.22;;;;;;;;;;6286163;22;19996;-80
2023/04/12 05:47:13;;;;;;;1.33;0.30;;;17.90;86.70;;;;;;6276164;22;20054;-80
2023/04/12 05:49:38;;;;;;;0.85;0.20;;;17.70;86.40;;;;;;6286052;22;19992;-81
2023/04/12 05:52:05;;;;;;;0.55;0.30;;;17.70;86.20;;;;;;6286189;22;20006;-82
2023/04/12 05:54:30;;;;;;;1.30;0.30;;;17.80;86.80;;;;;;6286221;22;20055;-81
2023/04/12 05:56:56;;;;;;;0.63;0.22;;;18.00;71.50;;;;;;6285980;22;20035;-80
2023/04/12 05:59:22;;;;;;;0.65;0.10;;;;;;;;;;6286076;22;20071;-81
2023/04/12 06:01:48;;;;;;;0.50;0.30;;;;;;;;;;6285696;22;20010;-80
2023/04/12 06:04:14;;;;;;;0.75;0.50;;;;;;;;;;6284302;22;20007;-80
2023/04/12 06:06:40;;;;;;;0.43;0.28;;;;;;;;;;6285474;22;20000;-82
2023/04/12 06:09:06;;;;;;;0.63;0.25;;;;;;;;;;6285498;22;20477;-79
2023/04/12 06:11:32;;;;;;;1.48;0.45;;;;;;;;;;6285415;22;20125;-79
2023/04/12 06:13:59;;;;;;;1.00;0.40;;;17.60;53.20;;;;;;6275455;22;20004;-81
2023/04/12 06:16:31;;;;;;;1.23;0.30;;;;;;;;;;6275374;22;20003;-80
2023/04/12 06:18:57;;;;;;;3.22;0.73;;;;;;;;;;6275451;22;20049;-80
2023/04/12 06:21:23;;;;;;;0.95;0.30;;;17.50;85.60;;;;;;6285403;22;20012;-80
2023/04/12 06:23:50;;;;;;;1.35;0.40;;;;;;;;;;6275428;22;19995;-80
2023/04/12 06:26:16;;;;;;;1.15;0.40;;;17.60;86.30;;;;;;6275753;22;20081;-80
2023/04/12 06:28:42;;;;;;;1.67;0.47;;;17.60;85.50;;;;;;6277573;22;19996;-86
2023/04/12 06:31:09;;;;;;;1.60;0.45;;;17.80;55.10;;;;;;6280823;22;20042;-81
2023/04/12 06:33:35;;;;;;;2.05;0.32;;;;;;;;;;6275850;22;19996;-84
2023/04/12 06:36:02;;;;;;;2.00;0.70;;;;;;;;;;6276055;22;20008;-87
2023/04/12 06:38:28;;;;;;;1.58;0.52;;;;;;;;;;6286228;22;19995;-80
2023/04/12 06:40:54;;;;;;;1.55;0.40;;;;;;;;;;6285664;22;19996;-82
2023/04/12 06:43:21;;;;;;;1.75;0.45;;;;;;;;;;6286173;22;20502;-82
2023/04/12 06:45:50;;;;;;;2.42;0.60;;;17.80;86.70;;;;;;6286368;22;19996;-88
2023/04/12 06:48:16;;;;;;;3.00;0.45;;;17.80;86.90;;;;;;6287204;22;19995;-82
2023/04/12 06:50:42;;;;;;;3.85;0.60;;;;;;;;;;6286347;22;20042;-80
2023/04/12 06:53:08;;;;;;;2.10;0.70;;;17.90;86.70;;;;;;6287821;22;19995;-89
2023/04/12 06:55:34;;;;;;;2.60;0.50;;;;;;;;;;6286687;22;20426;-85
2023/04/12 06:58:00;;;;;;;4.07;0.60;;;17.90;64.10;;;;;;6286037;22;20030;-83
2023/04/12 07:00:26;;;;;;;2.00;0.60;;;;;;;;;;6285965;22;20431;-83
2023/04/12 07:02:52;;;;;;;3.65;0.90;;;;;;;;;;6275415;22;20020;-88
2023/04/12 07:05:18;;;;;;;4.28;0.70;;;18.00;78.00;;;;;;6286029;22;20019;-87
2023/04/12 07:07:44;;;;;;;3.63;0.80;;;17.30;65.50;;;;;;6275899;22;19995;-87
2023/04/12 07:10:10;;;;;;;2.83;0.70;;;17.60;86.90;;;;;;6275811;22;20048;-86
2023/04/12 07:12:36;;;;;;;1.63;0.70;;;17.70;66.10;;;;;;6285649;22;20078;-86
2023/04/12 07:15:02;;;;;;;4.90;1.10;;;;;;;;;;6285686;22;19996;-86
2023/04/12 07:17:28;;;;;;;2.90;1.55;;;;;;;;;;6285771;22;20083;-87
2023/04/12 07:19:54;;;;;;;5.43;1.13;;;;;;;;;;6285845;22;20019;-87
2023/04/12 07:22:20;;;;;;;3.17;1.02;;;17.80;63.70;;;;;;6274128;22;20030;-87
2023/04/12 07:24:47;;;;;;;3.85;0.93;;;17.60;75.90;;;;;;6275585;22;20075;-87
2023/04/12 07:27:12;;;;;;;5.68;0.88;;;17.90;87.00;;;;;;6285738;22;20078;-86
2023/04/12 07:29:38;;;;;;;6.13;1.35;;;17.80;87.00;;;;;;6285460;22;20019;-87
2023/04/12 07:32:04;;;;;;;7.25;1.25;;;17.90;63.30;;;;;;6285595;22;19996;-87
2023/04/12 07:34:30;;;;;;;6.05;1.20;;;;;;;;;;6285615;22;19995;-86
2023/04/12 07:36:56;;;;;;;5.85;1.00;;;;;;;;;;6285312;22;20029;-79
2023/04/12 07:39:22;;;;;;;6.22;1.63;;;;;;;;;;6285626;22;20079;-80
2023/04/12 07:41:48;;;;;;;4.13;1.13;;;17.70;55.90;;;;;;6285727;22;20473;-87
2023/04/12 07:44:14;;;;;;;5.93;1.25;;;;;;;;;;6285687;22;20423;-87
2023/04/12 07:46:40;;;;;;;3.63;1.15;;;17.70;75.60;;;;;;6285500;22;19999;-85
2023/04/12 07:49:07;;;;;;;4.30;1.30;;;17.80;83.70;;;;;;6285431;22;19996;-85
2023/04/12 07:51:33;;;;;;;5.03;1.42;;;17.40;86.90;;;;;;6285651;22;20058;-83
2023/04/12 07:53:59;;;;;;;3.63;1.02;;;18.00;87.10;;;;;;6275665;22;20002;-77
2023/04/12 07:56:25;;;;;;;6.07;0.85;;;17.80;86.90;;;;;;6275237;22;20062;-81
2023/04/12 07:58:51;;;;;;;5.68;1.30;;;;;;;;;;6275367;22;19995;-77
2023/04/12 08:01:17;;;;;;;5.03;1.15;;;17.70;87.00;;;;;;6281385;22;20029;-83
2023/04/12 08:03:42;;;;;;;5.45;1.27;;;17.60;87.00;;;;;;6286383;22;20452;-89
2023/04/12 08:06:08;;;;;;;5.00;1.30;;;17.70;77.70;;;;;;6287005;22;20000;-83
2023/04/12 08:08:34;;;;;;;6.95;1.40;;;17.70;86.10;;;;;;6287191;22;20022;-80
2023/04/12 08:11:01;;;;;;;5.55;1.23;;;;;;;;;;6287149;22;19996;-82
2023/04/12 08:13:27;;;;;;;7.07;1.42;;;17.80;87.30;;;;;;6287200;22;19991;-79
2023/04/12 08:15:53;;;;;;;7.20;1.80;;;17.60;87.20;;;;;;6286991;22;20000;-84
2023/04/12 08:18:18;;;;;;;9.50;1.73;;;17.70;87.40;;;;;;6287080;22;20000;-80
2023/04/12 08:20:44;;;;;;;5.28;1.30;;;;;;;;;;6286950;22;19995;-84
2023/04/12 08:23:10;;;;;;;6.72;1.77;;;17.50;72.50;;;;;;6286903;22;20003;-81
2023/04/12 08:25:37;;;;;;;4.85;1.33;;;17.20;84.40;;;;;;6286753;22;19996;-77
2023/04/12 08:28:04;;;;;;;6.32;1.38;;;;;;;;;;6276915;22;19996;-81
2023/04/12 08:30:30;;;;;;;6.07;1.40;;;17.60;55.20;;;;;;6276416;22;20007;-79
2023/04/12 08:32:56;;;;;;;5.50;1.27;;;;;;;;;;6276881;22;19992;-79
2023/04/12 08:35:23;;;;;;;8.05;1.70;;;;;;;;;;6276841;22;20003;-79
2023/04/12 08:37:49;;;;;;;6.53;1.52;;;17.80;88.00;;;;;;6276769;22;20081;-80
2023/04/12 08:40:15;;;;;;;6.57;1.45;;;17.30;87.70;;;;;;6276734;22;20350;-80
2023/04/12 08:42:42;;;;;;;4.40;1.10;;;;;;;;;;6276779;22;20075;-80
2023/04/12 08:45:10;;;;;;;4.80;1.25;;;17.70;87.80;;;;;;6276606;22;20478;-80
2023/04/12 08:47:43;;;;;;;7.47;1.98;;;17.70;53.10;;;;;;6286730;22;20055;-79
2023/04/12 08:50:12;;;;;;;6.10;1.33;;;17.80;88.10;;;;;;6286939;22;20041;-80
2023/04/12 08:52:38;;;;;;;3.47;1.30;;;17.80;66.90;;;;;;6286540;22;20507;-80
2023/04/12 08:55:05;;;;;;;5.40;1.55;;;17.90;75.00;;;;;;6286332;22;20019;-80
2023/04/12 08:57:31;;;;;;;5.05;1.63;;;17.40;88.00;;;;;;6286327;22;20206;-84
2023/04/12 08:59:59;;;;;;;4.43;0.95;;;17.80;78.10;;;;;;6286556;22;19992;-81
2023/04/12 09:02:25;;;;;;;6.18;1.63;;;17.40;90.30;;;;;;6285839;22;20011;-81
2023/04/12 09:04:52;;;;;;;8.45;1.60;;;17.90;90.20;;;;;;6276722;22;20074;-82
2023/04/12 09:07:18;;;;;;;7.53;1.75;;;;;;;;;;6286665;22;20000;-82
2023/04/12 09:09:45;;;;;;;4.50;1.15;;;17.80;59.40;;;;;;6286525;22;20018;-81
2023/04/12 09:12:12;;;;;;;7.53;1.33;;;18.10;90.20;;;;;;6286559;22;19999;-82
2023/04/12 09:14:39;;;;;;;7.93;1.42;;;18.50;60.70;;;;;;6286292;22;19999;-81
2023/04/12 09:17:23;;;;;;;3.33;1.15;;;17.90;86.60;;;;;;6286311;22;20083;-82
2023/04/12 09:19:49;;;;;;;6.53;1.90;;;18.10;89.30;;;;;;6286443;22;19999;-82
2023/04/12 09:22:15;;;;;;;6.13;1.63;;;18.10;89.10;;;;;;6286443;22;20015;-81
2023/04/12 09:24:52;;;;;;;4.13;1.50;;;17.90;88.60;;;;;;6286536;22;19999;-80
2023/04/12 09:27:21;;;;;;;8.25;1.85;;;17.70;88.30;;;;;;6276472;22;20020;-82
2023/04/12 09:29:50;;;;;;;7.40;1.50;;;17.90;68.10;;;;;;6286190;22;20003;-77
2023/04/12 09:32:26;;;;;;;5.80;1.45;;;18.00;57.70;;;;;;6286355;22;19996;-76
2023/04/12 09:34:57;;;;;;;5.93;1.60;;;18.00;52.90;;;;;;6286160;22;19999;-75
2023/04/12 09:37:23;;;;;;;6.95;1.38;;;;;;;;;;6286075;22;20140;-75
2023/04/12 09:40:02;;;;;;;4.85;1.27;;;18.10;88.20;;;;;;6286121;22;19995;-75
2023/04/12 09:42:28;;;;;;;9.45;2.08;;;18.20;56.60;;;;;;6275780;22;19996;-78
2023/04/12 09:44:54;;;;;;;5.43;1.80;;;;;;;;;;6285975;22;20002;-78
2023/04/12 09:47:20;;;;;;;5.38;1.33;;;18.20;59.90;;;;;;6285986;22;20065;-77
2023/04/12 09:49:46;;;;;;;4.80;1.45;;;18.20;72.30;;;;;;6285991;22;19991;-77
2023/04/12 09:52:13;;;;;;;6.65;1.58;;;18.30;63.70;;;;;;6286034;22;20053;-77
2023/04/12 09:54:49;;;;;;;9.52;1.88;;;18.20;87.90;;;;;;6285956;22;20002;-77
2023/04/12 09:57:21;;;;;;;6.70;1.70;;;17.80;87.70;;;;;;6285906;22;20439;-77
2023/04/12 09:59:50;;;;;;;7.00;1.67;;;18.20;87.60;;;;;;6286123;22;20003;-78
2023/04/12 10:02:18;;;;;;;8.15;1.77;;;18.20;56.40;;;;;;6285560;22;20011;-80
2023/04/12 10:04:44;;;;;;;7.43;1.55;;;17.90;73.60;;;;;;6285846;22;20065;-80
2023/04/12 10:07:14;;;;;;;6.90;1.80;;;18.50;87.20;;;;;;6275693;22;20003;-79
2023/04/12 10:09:40;;;;;;;4.00;1.30;;;19.00;59.20;;;;;;6275857;22;20003;-81
2023/04/12 10:12:07;;;;;;;5.10;1.30;;;18.50;61.90;;;;;;6274037;22;20242;-84
2023/04/12 10:14:33;;;;;;;5.10;1.48;;;18.00;86.50;;;;;;6286426;22;20003;-79
2023/04/12 10:17:00;;;;;;;3.80;1.02;;;18.40;86.60;;;;;;6277513;22;20008;-80
2023/04/12 10:19:29;;;;;;;5.47;1.30;;;18.30;86.60;;;;;;6276736;22;19996;-77
2023/04/12 10:21:56;;;;;;;5.95;1.20;;;18.60;86.00;;;;;;6287209;22;20375;-87
2023/04/12 10:24:26;;;;;;;5.63;1.25;;;18.40;51.30;;;;;;6276406;22;19996;-87
2023/04/12 10:26:54;;;;;;;7.93;1.52;;;18.70;86.10;;;;;;6275951;22;20071;-89
2023/04/12 10:29:31;;;;;;;5.88;1.38;;;18.40;71.40;;;;;;6277141;22;20000;-92
2023/04/12 10:32:18;;;;;;;8.13;1.92;;;18.50;86.50;;;;;;6277455;22;19996;-79
2023/04/12 10:34:52;;;;;;;5.75;1.55;;;18.40;55.90;;;;;;6275649;22;20362;-80
2023/04/12 10:37:20;;;;;;;5.72;1.35;;;18.60;86.00;;;;;;6275770;22;20007;-72
2023/04/12 10:39:52;;;;;;;9.10;1.45;;;20.60;52.10;;;;;;6275667;22;20045;-72
2023/04/12 10:42:26;;;;;;;4.72;1.70;;;18.70;86.50;;;;;;6275452;22;19996;-72
2023/04/12 10:45:18;;;;;;;4.85;1.52;;;20.50;52.10;;;;;;6275607;22;20003;-72
2023/04/12 10:47:47;;;;;;;3.78;1.05;;;18.40;85.40;;;;;;6275165;22;20071;-72
2023/04/12 10:50:25;;;;;;;5.53;1.30;;;18.60;50.60;;;;;;6275642;22;20011;-72
2023/04/12 10:53:12;;;;;;;6.78;1.85;;;18.70;85.20;;;;;;6275235;22;20442;-72
2023/04/12 10:55:43;;;;;;;5.90;1.33;;;18.50;53.90;;;;;;6275340;22;20003;-79
2023/04/12 10:58:09;;;;;;;6.82;1.67;;;18.70;85.00;;;;;;6275417;22;20035;-79
2023/04/12 11:00:57;;;;;;;3.65;1.30;;;18.30;84.30;;;;;;6275669;22;19999;-79
2023/04/12 11:03:24;;;;;;;5.60;1.10;;;18.60;84.80;;;;;;6275328;22;20011;-79
2023/04/12 11:06:01;;;;;;;5.50;0.90;;;18.50;81.60;;;;;;6275716;22;20067;-79
2023/04/12 11:08:28;;;;;;;8.68;1.45;;;18.80;85.00;;;;;;6275734;22;20006;-79
2023/04/12 11:11:02;;;;;;;4.18;1.08;;;18.80;74.30;;;;;;6275575;22;20002;-79
2023/04/12 11:13:34;;;;;;;5.88;1.40;;;18.30;84.40;;;;;;6275275;22;19996;-79
2023/04/12 11:16:02;;;;;;;3.83;1.17;;;18.80;66.20;;;;;;6275581;22;20004;-79
2023/04/12 11:18:28;;;;;;;5.13;0.95;;;18.90;84.80;;;;;;6275234;22;20435;-78
2023/04/12 11:20:57;;;;;;;7.38;1.45;;;18.80;72.90;;;;;;6275520;22;20000;-79
2023/04/12 11:23:23;;;;;;;4.80;1.30;;;18.60;84.70;;;;;;6275222;22;20465;-78
2023/04/12 11:25:53;;;;;;;4.75;1.15;;;18.70;84.20;;;;;;6275443;22;20390;-79
2023/04/12 11:28:36;;;;;;;5.72;1.90;;;;;;;;;;6275002;22;20090;-79
2023/04/12 11:31:02;;;;;;;3.72;0.90;;;18.60;83.70;;;;;;6275551;22;20000;-79
2023/04/12 11:33:37;;;;;;;4.35;1.23;;;18.90;84.00;;;;;;6275603;22;19999;-79
2023/04/12 11:36:13;;;;;;;4.45;1.23;;;18.70;83.60;;;;;;6275476;22;20075;-79
2023/04/12 11:38:40;;;;;;;8.30;1.75;;;;;;;;;;6277050;22;20004;-79
2023/04/12 11:41:07;;;;;;;5.43;1.10;;;18.80;78.40;;;;;;6275335;22;20427;-79
2023/04/12 11:43:35;;;;;;;5.55;2.00;;;18.80;83.40;;;;;;6260207;22;20014;-76
2023/04/12 11:46:01;;;;;;;4.63;1.60;;;18.30;82.70;;;;;;6250132;22;20046;-79
2023/04/12 11:48:28;;;;;;;4.35;1.23;;;18.70;52.10;;;;;;6260232;22;19999;-79
2023/04/12 11:50:55;;;;;;;4.18;0.95;;;18.80;82.10;;;;;;6260357;22;20054;-79
2023/04/12 11:53:27;;;;;;;3.67;1.23;;;18.90;82.20;;;;;;6260659;22;20003;-79
2023/04/12 11:55:56;;;;;;;5.95;1.10;;;18.70;81.90;;;;;;6260106;22;20347;-79
2023/04/12 11:58:25;;;;;;;2.58;0.77;;;18.70;82.40;;;;;;6285644;22;20007;-79
2023/04/12 12:00:51;;;;;;;5.68;1.08;;;18.70;82.40;;;;;;6260578;22;19996;-79
2023/04/12 12:03:17;;;;;;;6.13;1.00;;;18.30;82.40;;;;;;6259656;22;20015;-79
2023/04/12 12:05:44;;;;;;;7.45;1.38;;;;;;;;;;6224856;22;20435;-79
2023/04/12 12:08:10;;;;;;;3.70;1.13;;;18.50;82.20;;;;;;6275682;22;20038;-79
2023/04/12 12:10:38;;;;;;;6.28;1.75;;;18.60;82.10;;;;;;6260031;22;20536;-79
2023/04/12 12:13:10;;;;;;;4.57;1.02;;;18.50;82.50;;;;;;6260430;22;20064;-79
2023/04/12 12:15:36;;;;;;;5.20;1.30;;;18.30;82.60;;;;;;6250395;22;20023;-79
2023/04/12 12:18:01;;;;;;;4.85;1.25;;;18.30;83.50;;;;;;6259740;22;20347;-78
2023/04/12 12:20:27;;;;;;;4.38;0.90;;;18.50;83.70;;;;;;6259873;22;20095;-79
2023/04/12 12:22:53;;;;;;;4.28;1.25;;;18.10;83.20;;;;;;6259748;22;20091;-78
2023/04/12 12:25:19;;;;;;;5.40;1.13;;;18.20;83.50;;;;;;6259970;22;20431;-79
2023/04/12 12:27:49;;;;;;;4.00;1.10;;;18.40;83.20;;;;;;6260092;22;20019;-79
2023/04/12 12:30:20;;;;;;;4.13;1.00;;;18.20;68.40;;;;;;6285491;22;20061;-78
2023/04/12 12:32:49;;;;;;;1.88;0.90;;;18.40;53.30;;;;;;6286808;22;19995;-78
2023/04/12 12:35:15;;;;;;;4.03;0.70;;;18.60;83.70;;;;;;6286854;22;20023;-80
2023/04/12 12:37:51;;;;;;;3.55;0.88;;;18.70;83.60;;;;;;6287006;22;20077;-92
2023/04/12 12:40:20;;;;;;;2.45;0.95;;;18.40;83.70;;;;;;6277016;22;20042;-81
2023/04/12 12:42:54;;;;;;;4.18;1.08;;;18.70;48.80;;;;;;6287591;22;20029;-90
2023/04/12 12:45:22;;;;;;;2.95;1.13;;;18.90;52.50;;;;;;6287206;22;20018;-80
2023/04/12 12:47:51;;;;;;;2.63;0.75;;;19.10;48.20;;;;;;6286847;22;20026;-80
2023/04/12 12:50:21;;;;;;;1.48;0.77;;;19.00;58.30;;;;;;6286375;22;19996;-80
2023/04/12 12:52:47;;;;;;;3.55;1.08;;;19.40;82.00;;;;;;6286619;22;19999;-80
2023/04/12 12:55:14;;;;;;;1.98;0.85;;;19.60;81.10;;;;;;6286442;22;20000;-80
2023/04/12 12:57:45;;;;;;;2.50;0.90;;;19.30;50.00;;;;;;6286744;22;20438;-80
2023/04/12 13:00:14;;;;;;;4.05;1.10;;;20.00;80.10;;;;;;6276738;22;20071;-84
2023/04/12 13:02:41;;;;;;;2.53;0.80;;;19.70;79.60;;;;;;6286494;22;20089;-86
2023/04/12 13:05:07;;;;;;;3.53;1.20;;;20.20;79.10;;;;;;6286619;22;20030;-79
2023/04/12 13:07:33;;;;;;;5.72;0.75;;;20.20;78.50;;;;;;6286531;22;20122;-83
2023/04/12 13:09:58;;;;;;;2.97;0.88;;;20.10;78.30;;;;;;6286562;22;19999;-81
2023/04/12 13:12:24;;;;;;;2.75;0.80;;;20.30;70.40;;;;;;6286385;22;19999;-83
2023/04/12 13:14:51;;;;;;;2.00;1.00;;;20.50;65.00;;;;;;6276192;22;20453;-78